sensor_id;sensor_type;location;lat;lon;timestamp;pressure;altitude;pressure_sealevel;temperature;humidity
65227;BME280;51805;49.012;12.104;2022-12-18T00:00:33;99068.25;;;22.66;48.72
65227;BME280;51805;49.012;12.104;2022-12-18T00:02:58;99083.75;;;22.70;48.71
65227;BME280;51805;49.012;12.104;2022-12-18T00:05:24;99065.84;;;22.69;48.64
65227;BME280;51805;49.012;12.104;2022-12-18T00:07:49;99067.22;;;22.72;48.65
65227;BME280;51805;49.012;12.104;2022-12-18T00:10:14;99062.56;;;22.67;48.71
65227;BME280;51805;49.012;12.104;2022-12-18T00:12:39;99051.63;;;22.57;49.05
65227;BME280;51805;49.012;12.104;2022-12-18T00:15:05;99049.19;;;22.56;48.61
65227;BME280;51805;49.012;12.104;2022-12-18T00:17:30;99061.63;;;22.57;48.83
65227;BME280;51805;49.012;12.104;2022-12-18T00:19:56;99061.72;;;22.62;48.86
65227;BME280;51805;49.012;12.104;2022-12-18T00:22:21;99068.44;;;22.59;48.79
65227;BME280;51805;49.012;12.104;2022-12-18T00:24:46;99065.09;;;22.52;48.81
65227;BME280;51805;49.012;12.104;2022-12-18T00:27:11;99080.84;;;22.55;48.82
65227;BME280;51805;49.012;12.104;2022-12-18T00:29:37;99082.44;;;22.51;48.96
65227;BME280;51805;49.012;12.104;2022-12-18T00:32:02;99093.28;;;22.51;48.79
65227;BME280;51805;49.012;12.104;2022-12-18T00:34:27;99074.22;;;22.46;49.00
65227;BME280;51805;49.012;12.104;2022-12-18T00:36:52;99091.31;;;22.47;48.91
65227;BME280;51805;49.012;12.104;2022-12-18T00:39:18;99079.63;;;22.46;48.99
65227;BME280;51805;49.012;12.104;2022-12-18T00:41:43;99088.59;;;22.47;48.68
65227;BME280;51805;49.012;12.104;2022-12-18T00:44:10;99088.25;;;22.43;48.90
65227;BME280;51805;49.012;12.104;2022-12-18T00:46:36;99093.69;;;22.43;48.97
65227;BME280;51805;49.012;12.104;2022-12-18T00:49:01;99100.19;;;22.42;49.02
65227;BME280;51805;49.012;12.104;2022-12-18T00:51:26;99113.66;;;22.37;49.07
65227;BME280;51805;49.012;12.104;2022-12-18T00:53:52;99108.22;;;22.37;49.16
65227;BME280;51805;49.012;12.104;2022-12-18T00:56:17;99101.47;;;22.40;48.89
65227;BME280;51805;49.012;12.104;2022-12-18T00:58:43;99110.63;;;22.34;48.89
65227;BME280;51805;49.012;12.104;2022-12-18T01:01:08;99095.63;;;22.26;49.12
65227;BME280;51805;49.012;12.104;2022-12-18T01:03:33;99106.03;;;22.34;48.97
65227;BME280;51805;49.012;12.104;2022-12-18T01:06:05;99101.72;;;22.38;48.90
65227;BME280;51805;49.012;12.104;2022-12-18T01:08:30;99084.47;;;22.23;49.13
65227;BME280;51805;49.012;12.104;2022-12-18T01:10:55;99092.72;;;22.33;48.98
65227;BME280;51805;49.012;12.104;2022-12-18T01:13:21;99093.53;;;22.33;49.10
65227;BME280;51805;49.012;12.104;2022-12-18T01:15:49;99086.66;;;22.26;48.81
65227;BME280;51805;49.012;12.104;2022-12-18T01:18:15;99095.63;;;22.26;49.05
65227;BME280;51805;49.012;12.104;2022-12-18T01:20:40;99117.03;;;22.28;49.05
65227;BME280;51805;49.012;12.104;2022-12-18T01:23:05;99104.59;;;22.10;49.43
65227;BME280;51805;49.012;12.104;2022-12-18T01:25:31;99119.38;;;22.19;49.32
65227;BME280;51805;49.012;12.104;2022-12-18T01:27:56;99110.66;;;22.17;49.17
65227;BME280;51805;49.012;12.104;2022-12-18T01:30:21;99116.56;;;22.14;49.27
65227;BME280;51805;49.012;12.104;2022-12-18T01:32:47;99118.44;;;22.14;49.09
65227;BME280;51805;49.012;12.104;2022-12-18T01:35:12;99115.50;;;22.15;49.15
65227;BME280;51805;49.012;12.104;2022-12-18T01:37:37;99107.28;;;22.10;49.33
65227;BME280;51805;49.012;12.104;2022-12-18T01:40:03;99114.91;;;22.13;49.30
65227;BME280;51805;49.012;12.104;2022-12-18T01:42:28;99120.34;;;22.13;49.15
65227;BME280;51805;49.012;12.104;2022-12-18T01:44:57;99121.16;;;22.14;49.29
65227;BME280;51805;49.012;12.104;2022-12-18T01:53:14;99130.34;;;21.96;49.64
65227;BME280;51805;49.012;12.104;2022-12-18T01:55:44;99129.06;;;21.99;49.55
65227;BME280;51805;49.012;12.104;2022-12-18T01:58:10;99136.94;;;22.00;49.38
65227;BME280;51805;49.012;12.104;2022-12-18T02:00:35;99132.66;;;21.88;49.67
65227;BME280;51805;49.012;12.104;2022-12-18T02:03:01;99135.63;;;21.86;49.69
65227;BME280;51805;49.012;12.104;2022-12-18T02:05:49;99143.84;;;21.91;49.50
65227;BME280;51805;49.012;12.104;2022-12-18T02:08:34;99129.63;;;21.84;49.48
65227;BME280;51805;49.012;12.104;2022-12-18T02:11:24;99142.84;;;21.97;49.46
65227;BME280;51805;49.012;12.104;2022-12-18T02:14:08;99142.16;;;21.90;49.51
65227;BME280;51805;49.012;12.104;2022-12-18T02:16:45;99143.00;;;21.91;49.47
65227;BME280;51805;49.012;12.104;2022-12-18T02:22:14;99143.66;;;21.81;49.54
65227;BME280;51805;49.012;12.104;2022-12-18T02:24:58;99145.81;;;21.79;49.72
65227;BME280;51805;49.012;12.104;2022-12-18T02:27:25;99134.66;;;21.76;49.64
65227;BME280;51805;49.012;12.104;2022-12-18T02:29:54;99132.75;;;21.76;49.66
65227;BME280;51805;49.012;12.104;2022-12-18T02:32:25;99142.16;;;21.74;49.82
65227;BME280;51805;49.012;12.104;2022-12-18T02:34:52;99138.25;;;21.81;49.54
65227;BME280;51805;49.012;12.104;2022-12-18T02:37:21;99134.41;;;21.77;49.65
65227;BME280;51805;49.012;12.104;2022-12-18T02:39:49;99139.22;;;21.75;49.61
65227;BME280;51805;49.012;12.104;2022-12-18T02:42:16;99136.41;;;21.70;49.69
65227;BME280;51805;49.012;12.104;2022-12-18T02:44:48;99144.63;;;21.75;49.57
65227;BME280;51805;49.012;12.104;2022-12-18T02:47:15;99145.34;;;21.71;49.67
65227;BME280;51805;49.012;12.104;2022-12-18T02:50:03;99145.50;;;21.64;49.94
65227;BME280;51805;49.012;12.104;2022-12-18T02:52:56;99141.75;;;21.65;49.55
65227;BME280;51805;49.012;12.104;2022-12-18T03:01:15;99148.84;;;21.55;49.95
65227;BME280;51805;49.012;12.104;2022-12-18T03:03:50;99146.88;;;21.50;49.94
65227;BME280;51805;49.012;12.104;2022-12-18T03:06:32;99146.06;;;21.50;49.98
65227;BME280;51805;49.012;12.104;2022-12-18T03:09:01;99162.97;;;21.57;49.87
65227;BME280;51805;49.012;12.104;2022-12-18T03:11:30;99161.09;;;21.57;49.87
65227;BME280;51805;49.012;12.104;2022-12-18T03:13:58;99141.97;;;21.47;49.97
65227;BME280;51805;49.012;12.104;2022-12-18T03:16:27;99156.66;;;21.51;50.04
65227;BME280;51805;49.012;12.104;2022-12-18T03:18:57;99144.75;;;21.52;49.98
65227;BME280;51805;49.012;12.104;2022-12-18T03:21:32;99137.88;;;21.44;49.90
65227;BME280;51805;49.012;12.104;2022-12-18T03:24:00;99141.41;;;21.45;50.00
65227;BME280;51805;49.012;12.104;2022-12-18T03:26:27;99152.88;;;21.52;49.77
65227;BME280;51805;49.012;12.104;2022-12-18T03:28:59;99148.78;;;21.50;49.93
65227;BME280;51805;49.012;12.104;2022-12-18T03:31:28;99151.16;;;21.46;49.80
65227;BME280;51805;49.012;12.104;2022-12-18T03:33:59;99146.22;;;21.43;49.79
65227;BME280;51805;49.012;12.104;2022-12-18T03:36:26;99139.44;;;21.40;50.10
65227;BME280;51805;49.012;12.104;2022-12-18T03:38:51;99141.78;;;21.37;49.81
65227;BME280;51805;49.012;12.104;2022-12-18T03:41:44;99136.72;;;21.40;50.19
65227;BME280;51805;49.012;12.104;2022-12-18T03:44:23;99141.31;;;21.40;49.91
65227;BME280;51805;49.012;12.104;2022-12-18T03:49:56;99147.19;;;21.37;50.00
65227;BME280;51805;49.012;12.104;2022-12-18T03:52:38;99133.09;;;21.35;50.08
65227;BME280;51805;49.012;12.104;2022-12-18T03:55:06;99126.53;;;21.31;50.15
65227;BME280;51805;49.012;12.104;2022-12-18T03:57:32;99129.16;;;21.26;50.30
65227;BME280;51805;49.012;12.104;2022-12-18T04:00:08;99147.69;;;21.34;49.97
65227;BME280;51805;49.012;12.104;2022-12-18T04:02:34;99140.06;;;21.31;49.99
65227;BME280;51805;49.012;12.104;2022-12-18T04:05:04;99141.34;;;21.28;50.36
65227;BME280;51805;49.012;12.104;2022-12-18T04:07:32;99148.66;;;21.28;50.38
65227;BME280;51805;49.012;12.104;2022-12-18T04:09:58;99148.66;;;21.28;50.40
65227;BME280;51805;49.012;12.104;2022-12-18T04:12:26;99143.75;;;21.25;50.33
65227;BME280;51805;49.012;12.104;2022-12-18T04:14:53;99147.16;;;21.20;50.25
65227;BME280;51805;49.012;12.104;2022-12-18T04:17:19;99157.81;;;21.27;50.42
65227;BME280;51805;49.012;12.104;2022-12-18T04:19:44;99154.22;;;21.21;50.39
65227;BME280;51805;49.012;12.104;2022-12-18T04:22:10;99168.56;;;21.22;50.33
65227;BME280;51805;49.012;12.104;2022-12-18T04:24:35;99150.00;;;21.14;50.33
65227;BME280;51805;49.012;12.104;2022-12-18T04:27:01;99150.13;;;21.19;50.33
65227;BME280;51805;49.012;12.104;2022-12-18T04:29:26;99154.44;;;21.20;50.31
65227;BME280;51805;49.012;12.104;2022-12-18T04:31:51;99164.19;;;21.21;50.46
65227;BME280;51805;49.012;12.104;2022-12-18T04:34:17;99150.97;;;21.08;50.54
65227;BME280;51805;49.012;12.104;2022-12-18T04:36:42;99155.66;;;21.12;50.32
65227;BME280;51805;49.012;12.104;2022-12-18T04:39:07;99175.50;;;21.18;50.29
65227;BME280;51805;49.012;12.104;2022-12-18T04:41:32;99177.16;;;21.19;50.30
65227;BME280;51805;49.012;12.104;2022-12-18T04:43:58;99171.06;;;21.12;50.36
65227;BME280;51805;49.012;12.104;2022-12-18T04:46:23;99167.19;;;21.08;50.32
65227;BME280;51805;49.012;12.104;2022-12-18T04:48:48;99158.25;;;21.07;50.46
65227;BME280;51805;49.012;12.104;2022-12-18T04:51:14;99185.97;;;21.14;50.38
65227;BME280;51805;49.012;12.104;2022-12-18T04:53:39;99187.84;;;21.14;50.30
65227;BME280;51805;49.012;12.104;2022-12-18T04:56:08;99182.69;;;21.12;50.28
65227;BME280;51805;49.012;12.104;2022-12-18T04:58:34;99182.00;;;21.05;50.29
65227;BME280;51805;49.012;12.104;2022-12-18T05:00:59;99191.53;;;21.08;50.34
65227;BME280;51805;49.012;12.104;2022-12-18T05:03:25;99182.72;;;21.01;50.31
65227;BME280;51805;49.012;12.104;2022-12-18T05:05:50;99188.22;;;21.06;50.19
65227;BME280;51805;49.012;12.104;2022-12-18T05:08:16;99193.63;;;21.06;50.15
65227;BME280;51805;49.012;12.104;2022-12-18T05:10:41;99183.78;;;21.00;50.23
65227;BME280;51805;49.012;12.104;2022-12-18T05:13:07;99204.44;;;21.06;50.23
65227;BME280;51805;49.012;12.104;2022-12-18T05:18:08;99196.81;;;21.03;50.10
65227;BME280;51805;49.012;12.104;2022-12-18T05:20:34;99190.50;;;20.97;50.27
65227;BME280;51805;49.012;12.104;2022-12-18T05:22:59;99195.06;;;20.97;50.31
65227;BME280;51805;49.012;12.104;2022-12-18T05:25:24;99204.44;;;21.06;50.18
65227;BME280;51805;49.012;12.104;2022-12-18T05:27:50;99197.06;;;21.01;50.05
65227;BME280;51805;49.012;12.104;2022-12-18T05:30:16;99203.06;;;21.03;50.11
65227;BME280;51805;49.012;12.104;2022-12-18T05:32:41;99208.22;;;21.05;50.16
65227;BME280;51805;49.012;12.104;2022-12-18T05:35:09;99203.63;;;21.05;50.13
65227;BME280;51805;49.012;12.104;2022-12-18T05:37:34;99206.09;;;21.07;49.99
65227;BME280;51805;49.012;12.104;2022-12-18T05:40:00;99203.97;;;21.09;49.83
65227;BME280;51805;49.012;12.104;2022-12-18T05:45:02;99219.22;;;21.15;49.85
65227;BME280;51805;49.012;12.104;2022-12-18T05:47:27;99208.91;;;21.12;49.73
65227;BME280;51805;49.012;12.104;2022-12-18T05:49:52;99217.84;;;21.12;49.64
65227;BME280;51805;49.012;12.104;2022-12-18T05:58:04;99219.94;;;21.22;49.62
65227;BME280;51805;49.012;12.104;2022-12-18T06:00:31;99230.75;;;21.22;49.63
65227;BME280;51805;49.012;12.104;2022-12-18T06:02:56;99234.84;;;21.24;49.28
65227;BME280;51805;49.012;12.104;2022-12-18T06:05:22;99251.97;;;21.30;49.61
65227;BME280;51805;49.012;12.104;2022-12-18T06:07:47;99236.34;;;21.32;49.46
65227;BME280;51805;49.012;12.104;2022-12-18T06:10:13;99233.88;;;21.30;49.46
65227;BME280;51805;49.012;12.104;2022-12-18T06:12:38;99245.84;;;21.34;49.58
65227;BME280;51805;49.012;12.104;2022-12-18T06:15:04;99233.63;;;21.32;49.42
65227;BME280;51805;49.012;12.104;2022-12-18T06:17:30;99233.97;;;21.35;49.34
65227;BME280;51805;49.012;12.104;2022-12-18T06:19:55;99240.78;;;21.38;49.35
65227;BME280;51805;49.012;12.104;2022-12-18T06:22:21;99239.50;;;21.40;49.28
65227;BME280;51805;49.012;12.104;2022-12-18T06:24:46;99235.38;;;21.38;49.29
65227;BME280;51805;49.012;12.104;2022-12-18T06:27:11;99246.88;;;21.45;49.31
65227;BME280;51805;49.012;12.104;2022-12-18T06:29:37;99238.19;;;21.43;49.23
65227;BME280;51805;49.012;12.104;2022-12-18T06:35:21;99250.16;;;21.47;49.05
65227;BME280;51805;49.012;12.104;2022-12-18T06:37:46;99243.69;;;21.48;49.09
65227;BME280;51805;49.012;12.104;2022-12-18T06:40:12;99235.22;;;21.44;49.02
65227;BME280;51805;49.012;12.104;2022-12-18T06:42:37;99244.34;;;21.55;48.65
65227;BME280;51805;49.012;12.104;2022-12-18T06:45:03;99253.53;;;21.54;48.90
65227;BME280;51805;49.012;12.104;2022-12-18T06:47:28;99257.16;;;21.60;48.79
65227;BME280;51805;49.012;12.104;2022-12-18T06:49:53;99254.44;;;21.60;48.94
65227;BME280;51805;49.012;12.104;2022-12-18T06:52:18;99261.78;;;21.59;48.94
65227;BME280;51805;49.012;12.104;2022-12-18T06:54:44;99238.28;;;21.48;48.65
65227;BME280;51805;49.012;12.104;2022-12-18T06:57:09;99254.31;;;21.66;48.55
65227;BME280;51805;49.012;12.104;2022-12-18T06:59:37;99262.19;;;21.68;48.54
65227;BME280;51805;49.012;12.104;2022-12-18T07:02:02;99264.16;;;21.72;48.64
65227;BME280;51805;49.012;12.104;2022-12-18T07:04:29;99260.75;;;21.77;48.41
65227;BME280;51805;49.012;12.104;2022-12-18T07:06:54;99276.63;;;21.73;48.60
65227;BME280;51805;49.012;12.104;2022-12-18T07:09:19;99282.03;;;21.73;48.90
65227;BME280;51805;49.012;12.104;2022-12-18T07:11:45;99274.97;;;21.72;48.64
65227;BME280;51805;49.012;12.104;2022-12-18T07:14:10;99290.28;;;21.78;48.62
65227;BME280;51805;49.012;12.104;2022-12-18T07:16:35;99287.69;;;21.83;48.62
65227;BME280;51805;49.012;12.104;2022-12-18T07:19:01;99278.00;;;21.87;48.57
65227;BME280;51805;49.012;12.104;2022-12-18T07:21:26;99286.69;;;21.89;48.35
65227;BME280;51805;49.012;12.104;2022-12-18T07:23:51;99289.41;;;21.89;48.42
65227;BME280;51805;49.012;12.104;2022-12-18T07:26:18;99292.13;;;21.89;48.21
65227;BME280;51805;49.012;12.104;2022-12-18T07:28:44;99292.13;;;21.89;48.46
65227;BME280;51805;49.012;12.104;2022-12-18T07:31:12;99284.00;;;21.89;48.42
65227;BME280;51805;49.012;12.104;2022-12-18T07:33:38;99269.97;;;21.92;48.20
65227;BME280;51805;49.012;12.104;2022-12-18T07:36:04;99269.63;;;21.89;48.25
65227;BME280;51805;49.012;12.104;2022-12-18T07:38:31;99263.19;;;21.90;48.03
65227;BME280;51805;49.012;12.104;2022-12-18T07:43:27;99264.66;;;21.97;48.55
65227;BME280;51805;49.012;12.104;2022-12-18T07:45:53;99262.75;;;21.98;48.13
65227;BME280;51805;49.012;12.104;2022-12-18T07:48:18;99269.59;;;22.00;48.18
65227;BME280;51805;49.012;12.104;2022-12-18T07:50:43;99275.59;;;22.02;48.19
65227;BME280;51805;49.012;12.104;2022-12-18T07:53:08;99261.94;;;21.97;48.04
65227;BME280;51805;49.012;12.104;2022-12-18T07:55:34;99265.69;;;21.96;48.22
65227;BME280;51805;49.012;12.104;2022-12-18T07:58:03;99279.91;;;22.03;48.09
65227;BME280;51805;49.012;12.104;2022-12-18T08:00:28;99279.69;;;22.05;48.20
65227;BME280;51805;49.012;12.104;2022-12-18T08:02:54;99288.63;;;22.05;48.11
65227;BME280;51805;49.012;12.104;2022-12-18T08:05:19;99291.25;;;22.00;49.36
65227;BME280;51805;49.012;12.104;2022-12-18T08:07:44;99288.88;;;22.04;49.62
65227;BME280;51805;49.012;12.104;2022-12-18T08:10:10;99293.56;;;22.08;49.37
65227;BME280;51805;49.012;12.104;2022-12-18T08:12:35;99297.06;;;22.09;49.20
65227;BME280;51805;49.012;12.104;2022-12-18T08:15:00;99296.31;;;22.13;49.19
65227;BME280;51805;49.012;12.104;2022-12-18T08:17:25;99304.44;;;22.13;49.02
65227;BME280;51805;49.012;12.104;2022-12-18T08:19:51;99304.44;;;22.13;49.00
65227;BME280;51805;49.012;12.104;2022-12-18T08:22:16;99295.53;;;22.13;49.17
65227;BME280;51805;49.012;12.104;2022-12-18T08:24:41;99301.19;;;22.11;49.04
65227;BME280;51805;49.012;12.104;2022-12-18T08:27:07;99317.50;;;22.16;48.97
65227;BME280;51805;49.012;12.104;2022-12-18T08:29:32;99333.75;;;22.16;48.81
65227;BME280;51805;49.012;12.104;2022-12-18T08:31:57;99325.31;;;22.13;48.90
65227;BME280;51805;49.012;12.104;2022-12-18T08:34:22;99328.44;;;22.21;48.81
65227;BME280;51805;49.012;12.104;2022-12-18T08:36:48;99314.78;;;22.16;48.68
65227;BME280;51805;49.012;12.104;2022-12-18T08:39:13;99318.53;;;22.27;49.03
65227;BME280;51805;49.012;12.104;2022-12-18T08:41:38;99327.63;;;22.21;49.19
65227;BME280;51805;49.012;12.104;2022-12-18T08:44:04;99329.50;;;22.20;49.34
65227;BME280;51805;49.012;12.104;2022-12-18T08:46:35;99332.56;;;22.24;49.04
65227;BME280;51805;49.012;12.104;2022-12-18T08:49:01;99325.97;;;22.20;49.22
65227;BME280;51805;49.012;12.104;2022-12-18T08:51:27;99328.78;;;22.25;48.93
65227;BME280;51805;49.012;12.104;2022-12-18T08:53:52;99331.22;;;22.26;49.17
65227;BME280;51805;49.012;12.104;2022-12-18T08:56:17;99329.59;;;22.25;49.21
65227;BME280;51805;49.012;12.104;2022-12-18T08:58:43;99335.66;;;22.32;49.45
65227;BME280;51805;49.012;12.104;2022-12-18T09:01:11;99337.31;;;22.33;49.47
65227;BME280;51805;49.012;12.104;2022-12-18T09:03:37;99345.66;;;22.32;49.50
65227;BME280;51805;49.012;12.104;2022-12-18T09:06:02;99339.44;;;22.31;49.52
65227;BME280;51805;49.012;12.104;2022-12-18T09:08:28;99344.03;;;22.31;49.59
65227;BME280;51805;49.012;12.104;2022-12-18T09:10:54;99343.06;;;22.37;49.25
65227;BME280;51805;49.012;12.104;2022-12-18T09:13:19;99335.75;;;22.37;49.30
65227;BME280;51805;49.012;12.104;2022-12-18T09:15:50;99336.56;;;22.38;49.24
65227;BME280;51805;49.012;12.104;2022-12-18T09:18:17;99334.78;;;22.43;49.26
65227;BME280;51805;49.012;12.104;2022-12-18T09:20:43;99326.91;;;22.42;49.16
65227;BME280;51805;49.012;12.104;2022-12-18T09:23:09;99333.22;;;22.47;48.89
65227;BME280;51805;49.012;12.104;2022-12-18T09:25:36;99318.94;;;22.35;45.51
65227;BME280;51805;49.012;12.104;2022-12-18T09:28:16;99331.50;;;21.06;38.90
65227;BME280;51805;49.012;12.104;2022-12-18T09:30:46;99328.50;;;20.50;37.92
65227;BME280;51805;49.012;12.104;2022-12-18T09:33:12;99327.38;;;20.57;37.94
65227;BME280;51805;49.012;12.104;2022-12-18T09:35:40;99317.84;;;20.66;38.50
65227;BME280;51805;49.012;12.104;2022-12-18T09:38:06;99324.19;;;20.72;38.72
65227;BME280;51805;49.012;12.104;2022-12-18T09:40:35;99321.38;;;20.78;38.26
65227;BME280;51805;49.012;12.104;2022-12-18T09:43:04;99322.41;;;20.89;36.83
65227;BME280;51805;49.012;12.104;2022-12-18T09:45:40;99318.09;;;20.88;36.54
65227;BME280;51805;49.012;12.104;2022-12-18T09:48:05;99310.78;;;20.88;36.52
65227;BME280;51805;49.012;12.104;2022-12-18T09:50:50;99317.03;;;20.89;36.44
65227;BME280;51805;49.012;12.104;2022-12-18T09:53:22;99296.47;;;20.76;36.50
65227;BME280;51805;49.012;12.104;2022-12-18T09:55:51;99312.31;;;20.84;36.95
65227;BME280;51805;49.012;12.104;2022-12-18T09:58:32;99310.44;;;20.85;36.51
65227;BME280;51805;49.012;12.104;2022-12-18T10:01:01;99302.09;;;20.86;37.07
65227;BME280;51805;49.012;12.104;2022-12-18T10:03:26;99297.06;;;20.78;36.26
65227;BME280;51805;49.012;12.104;2022-12-18T10:09:30;99297.06;;;20.78;36.36
65227;BME280;51805;49.012;12.104;2022-12-18T10:11:41;99290.81;;;20.78;36.26
65227;BME280;51805;49.012;12.104;2022-12-18T10:14:29;99286.84;;;20.80;36.59
65227;BME280;51805;49.012;12.104;2022-12-18T10:23:33;99187.94;;;20.10;35.65
65227;BME280;51805;49.012;12.104;2022-12-18T10:26:08;99292.47;;;20.79;35.89
65227;BME280;51805;49.012;12.104;2022-12-18T10:28:36;99271.34;;;20.64;36.38
65227;BME280;51805;49.012;12.104;2022-12-18T10:31:05;99275.44;;;20.67;36.09
65227;BME280;51805;49.012;12.104;2022-12-18T10:33:32;99275.44;;;20.67;35.84
65227;BME280;51805;49.012;12.104;2022-12-18T10:35:58;99259.00;;;20.57;36.09
65227;BME280;51805;49.012;12.104;2022-12-18T10:38:32;99278.38;;;20.77;35.78
65227;BME280;51805;49.012;12.104;2022-12-18T10:40:59;99284.84;;;20.76;35.67
65227;BME280;51805;49.012;12.104;2022-12-18T10:43:27;99276.75;;;20.76;35.53
65227;BME280;51805;49.012;12.104;2022-12-18T10:48:40;99266.50;;;20.78;35.79
65227;BME280;51805;49.012;12.104;2022-12-18T10:51:20;99262.66;;;20.74;35.87
65227;BME280;51805;49.012;12.104;2022-12-18T10:53:52;99255.81;;;20.71;35.52
65227;BME280;51805;49.012;12.104;2022-12-18T10:56:20;99265.34;;;20.62;35.40
65227;BME280;51805;49.012;12.104;2022-12-18T11:01:22;99242.09;;;20.38;35.22
65227;BME280;51805;49.012;12.104;2022-12-18T11:06:21;99254.75;;;20.38;34.40
65227;BME280;51805;49.012;12.104;2022-12-18T11:09:06;99256.91;;;20.36;34.85
65227;BME280;51805;49.012;12.104;2022-12-18T11:11:48;99257.56;;;20.31;34.78
65227;BME280;51805;49.012;12.104;2022-12-18T11:14:20;99278.94;;;20.33;35.36
65227;BME280;51805;49.012;12.104;2022-12-18T11:16:48;99252.19;;;20.20;35.02
65227;BME280;51805;49.012;12.104;2022-12-18T11:19:34;99269.91;;;20.27;34.96
65227;BME280;51805;49.012;12.104;2022-12-18T11:22:19;99283.16;;;20.29;34.76
65227;BME280;51805;49.012;12.104;2022-12-18T11:24:54;99290.44;;;20.28;34.94
65227;BME280;51805;49.012;12.104;2022-12-18T11:27:20;99294.44;;;20.26;35.14
65227;BME280;51805;49.012;12.104;2022-12-18T11:29:46;99274.25;;;20.17;34.91
65227;BME280;51805;49.012;12.104;2022-12-18T11:34:41;99273.31;;;20.46;35.88
65227;BME280;51805;49.012;12.104;2022-12-18T11:37:08;99253.13;;;20.60;36.00
65227;BME280;51805;49.012;12.104;2022-12-18T11:39:41;99267.72;;;20.59;35.36
65227;BME280;51805;49.012;12.104;2022-12-18T11:42:25;99275.81;;;20.59;34.73
65227;BME280;51805;49.012;12.104;2022-12-18T11:44:54;99276.28;;;20.56;34.81
65227;BME280;51805;49.012;12.104;2022-12-18T11:47:28;99273.44;;;20.51;34.85
65227;BME280;51805;49.012;12.104;2022-12-18T11:49:56;99268.84;;;20.51;34.66
65227;BME280;51805;49.012;12.104;2022-12-18T11:52:33;99260.19;;;20.49;35.21
65227;BME280;51805;49.012;12.104;2022-12-18T11:55:10;99265.00;;;20.47;34.79
65227;BME280;51805;49.012;12.104;2022-12-18T12:00:18;99268.75;;;20.46;35.17
65227;BME280;51805;49.012;12.104;2022-12-18T12:03:18;99269.81;;;20.80;35.96
65227;BME280;51805;49.012;12.104;2022-12-18T12:06:31;99288.47;;;21.04;37.05
65227;BME280;51805;49.012;12.104;2022-12-18T12:11:43;99262.28;;;21.05;34.59
65227;BME280;51805;49.012;12.104;2022-12-18T12:17:22;99238.91;;;20.64;34.19
65227;BME280;51805;49.012;12.104;2022-12-18T12:20:16;99241.97;;;20.56;34.31
65227;BME280;51805;49.012;12.104;2022-12-18T12:22:57;99236.69;;;20.50;34.12
65227;BME280;51805;49.012;12.104;2022-12-18T12:25:36;99223.66;;;20.47;34.59
65227;BME280;51805;49.012;12.104;2022-12-18T12:28:25;99220.25;;;20.40;34.56
65227;BME280;51805;49.012;12.104;2022-12-18T12:39:34;99219.09;;;20.36;34.07
65227;BME280;51805;49.012;12.104;2022-12-18T12:42:03;99220.72;;;20.37;34.15
65227;BME280;51805;49.012;12.104;2022-12-18T12:44:43;99228.84;;;20.37;33.95
65227;BME280;51805;49.012;12.104;2022-12-18T12:47:14;99223.06;;;20.33;34.36
65227;BME280;51805;49.012;12.104;2022-12-18T12:49:43;99213.56;;;20.31;33.91
65227;BME280;51805;49.012;12.104;2022-12-18T12:52:15;99222.47;;;20.31;33.95
65227;BME280;51805;49.012;12.104;2022-12-18T12:54:42;99222.13;;;20.28;33.88
65227;BME280;51805;49.012;12.104;2022-12-18T12:59:51;99223.78;;;20.29;33.87
65227;BME280;51805;49.012;12.104;2022-12-18T13:02:33;99218.75;;;20.32;33.37
65227;BME280;51805;49.012;12.104;2022-12-18T13:07:40;99204.16;;;20.33;33.25
65227;BME280;51805;49.012;12.104;2022-12-18T13:10:32;99204.63;;;20.30;33.04
65227;BME280;51805;49.012;12.104;2022-12-18T13:25:48;99204.97;;;20.11;33.37
65227;BME280;51805;49.012;12.104;2022-12-18T13:28:16;99190.75;;;20.04;33.31
65227;BME280;51805;49.012;12.104;2022-12-18T13:31:01;99218.84;;;20.14;32.79
65227;BME280;51805;49.012;12.104;2022-12-18T13:36:14;99219.41;;;20.16;32.80
65227;BME280;51805;49.012;12.104;2022-12-18T13:38:41;99208.38;;;20.06;32.85
65227;BME280;51805;49.012;12.104;2022-12-18T13:44:10;99214.50;;;20.13;32.76
65227;BME280;51805;49.012;12.104;2022-12-18T13:46:48;99219.03;;;20.13;33.00
65227;BME280;51805;49.012;12.104;2022-12-18T13:49:24;99210.94;;;20.13;33.16
65227;BME280;51805;49.012;12.104;2022-12-18T13:51:52;99223.03;;;20.10;32.42
65227;BME280;51805;49.012;12.104;2022-12-18T13:56:47;99216.16;;;20.14;32.88
65227;BME280;51805;49.012;12.104;2022-12-18T14:01:51;99195.09;;;20.05;32.75
65227;BME280;51805;49.012;12.104;2022-12-18T14:04:25;99192.63;;;20.03;32.91
65227;BME280;51805;49.012;12.104;2022-12-18T14:06:55;99201.31;;;20.05;32.40
65227;BME280;51805;49.012;12.104;2022-12-18T14:09:25;99197.66;;;20.00;32.26
65227;BME280;51805;49.012;12.104;2022-12-18T14:11:51;99196.50;;;19.96;32.57
65227;BME280;51805;49.012;12.104;2022-12-18T14:14:18;99206.38;;;20.02;32.41
65227;BME280;51805;49.012;12.104;2022-12-18T14:16:45;99206.94;;;20.04;32.39
65227;BME280;51805;49.012;12.104;2022-12-18T14:19:16;99196.75;;;19.94;32.40
65227;BME280;51805;49.012;12.104;2022-12-18T14:21:47;99205.53;;;20.01;32.18
65227;BME280;51805;49.012;12.104;2022-12-18T14:24:18;99202.47;;;19.98;32.19
65227;BME280;51805;49.012;12.104;2022-12-18T14:26:44;99201.44;;;19.99;32.12
65227;BME280;51805;49.012;12.104;2022-12-18T14:29:22;99192.59;;;19.92;32.22
65227;BME280;51805;49.012;12.104;2022-12-18T14:32:26;99203.53;;;19.97;32.20
65227;BME280;51805;49.012;12.104;2022-12-18T14:34:53;99197.41;;;19.89;31.89
65227;BME280;51805;49.012;12.104;2022-12-18T14:37:24;99214.19;;;19.92;31.98
65227;BME280;51805;49.012;12.104;2022-12-18T14:40:01;99196.59;;;19.89;32.36